createdAt,value
2019-05-26T00:00:59.099Z,17.79
2019-05-26T00:03:27.088Z,17.79
2019-05-26T00:05:55.089Z,17.79
2019-05-26T00:08:23.148Z,17.77
2019-05-26T00:10:51.285Z,17.75
2019-05-26T00:13:19.370Z,17.75
2019-05-26T00:15:47.469Z,17.73
2019-05-26T00:18:15.626Z,17.73
2019-05-26T00:20:44.096Z,17.72
2019-05-26T00:23:12.078Z,17.70
2019-05-26T00:25:40.160Z,17.68
2019-05-26T00:28:08.143Z,17.69
2019-05-26T00:30:36.302Z,17.66
2019-05-26T00:33:04.354Z,17.66
2019-05-26T00:35:32.370Z,17.64
2019-05-26T00:38:00.355Z,17.63
2019-05-26T00:40:29.097Z,17.63
2019-05-26T00:42:57.149Z,17.61
2019-05-26T00:45:25.218Z,17.61
2019-05-26T00:47:53.225Z,17.60
2019-05-26T00:50:21.307Z,17.59
2019-05-26T00:52:49.286Z,17.57
2019-05-26T00:55:17.358Z,17.57
2019-05-26T00:57:45.333Z,17.55
2019-05-26T01:00:13.347Z,17.55
2019-05-26T01:02:41.410Z,17.53
2019-05-26T01:05:09.535Z,17.53
2019-05-26T01:07:37.655Z,17.51
2019-05-26T01:10:05.926Z,17.49
2019-05-26T01:12:33.988Z,17.49
2019-05-26T01:15:01.999Z,17.49
2019-05-26T01:17:30.213Z,17.46
2019-05-26T01:19:58.214Z,17.44
2019-05-26T01:22:26.274Z,17.43
2019-05-26T01:24:54.352Z,17.42
2019-05-26T01:27:22.426Z,17.42
2019-05-26T01:29:50.478Z,17.42
2019-05-26T01:32:18.489Z,17.40
2019-05-26T01:34:46.536Z,17.39
2019-05-26T01:37:14.605Z,17.40
2019-05-26T01:39:42.739Z,17.38
2019-05-26T01:42:10.746Z,17.37
2019-05-26T01:44:38.879Z,17.37
2019-05-26T01:47:06.922Z,17.35
2019-05-26T01:49:35.063Z,17.34
2019-05-26T01:52:03.058Z,17.33
2019-05-26T01:54:31.192Z,17.32
2019-05-26T01:56:59.203Z,17.31
2019-05-26T01:59:27.273Z,17.32
2019-05-26T02:01:58.545Z,17.30
2019-05-26T02:04:25.012Z,17.30
2019-05-26T02:06:53.037Z,17.29
2019-05-26T02:09:21.023Z,17.27
2019-05-26T02:11:49.178Z,17.27
2019-05-26T02:14:17.236Z,17.27
2019-05-26T02:16:58.997Z,17.24
2019-05-26T02:19:14.936Z,17.26
2019-05-26T02:21:43.002Z,17.24
2019-05-26T02:24:11.055Z,17.23
2019-05-26T02:26:39.230Z,17.24
2019-05-26T02:29:07.283Z,17.23
2019-05-26T02:31:35.372Z,17.20
2019-05-26T02:34:03.435Z,17.22
2019-05-26T02:36:31.515Z,17.21
2019-05-26T02:39:02.486Z,17.19
2019-05-26T02:41:29.370Z,17.18
2019-05-26T02:43:57.501Z,17.17
2019-05-26T02:46:25.543Z,17.15
2019-05-26T02:48:53.535Z,17.15
2019-05-26T02:51:21.747Z,17.13
2019-05-26T02:53:49.685Z,17.12
2019-05-26T02:56:17.688Z,17.11
2019-05-26T02:58:45.741Z,17.11
2019-05-26T03:01:13.834Z,17.09
2019-05-26T03:03:41.820Z,17.08
2019-05-26T03:06:09.937Z,17.08
2019-05-26T03:08:37.951Z,17.07
2019-05-26T03:11:05.948Z,17.06
2019-05-26T03:13:35.099Z,17.06
2019-05-26T03:16:03.127Z,17.05
2019-05-26T03:18:31.208Z,17.05
2019-05-26T03:20:59.199Z,17.04
2019-05-26T03:23:27.811Z,17.03
2019-05-26T03:25:55.873Z,17.00
2019-05-26T03:28:23.875Z,17.01
2019-05-26T03:30:52.029Z,16.98
2019-05-26T03:33:20.105Z,16.99
2019-05-26T03:35:48.295Z,16.99
2019-05-26T03:38:16.292Z,16.98
2019-05-26T03:40:44.347Z,16.98
2019-05-26T03:43:12.508Z,16.96
2019-05-26T03:46:14.694Z,16.95
2019-05-26T03:48:42.714Z,16.95
2019-05-26T03:51:10.795Z,16.93
2019-05-26T03:53:38.891Z,16.93
2019-05-26T03:56:06.931Z,16.93
2019-05-26T03:58:35.106Z,16.92
2019-05-26T04:01:03.183Z,16.92
2019-05-26T04:03:31.189Z,16.92
2019-05-26T04:05:59.247Z,16.93
2019-05-26T04:08:27.248Z,16.92
2019-05-26T04:11:14.345Z,16.89
2019-05-26T04:13:42.347Z,16.90
2019-05-26T04:16:18.215Z,16.88
2019-05-26T04:18:46.298Z,16.88
2019-05-26T04:21:14.374Z,16.86
2019-05-26T04:23:42.491Z,16.85
2019-05-26T04:26:10.442Z,16.86
2019-05-26T04:28:38.440Z,16.84
2019-05-26T04:31:06.600Z,16.85
2019-05-26T04:33:34.614Z,16.85
2019-05-26T04:36:02.673Z,16.86
2019-05-26T04:38:30.681Z,16.87
2019-05-26T04:40:58.639Z,16.85
2019-05-26T04:43:26.733Z,16.88
2019-05-26T04:45:54.710Z,16.87
2019-05-26T04:48:22.741Z,16.86
2019-05-26T04:50:50.802Z,16.85
2019-05-26T04:53:18.893Z,16.84
2019-05-26T04:55:46.952Z,16.85
2019-05-26T04:58:14.971Z,16.83
2019-05-26T05:00:43.027Z,16.83
2019-05-26T05:03:11.098Z,16.81
2019-05-26T05:05:39.147Z,16.79
2019-05-26T05:08:07.241Z,16.80
2019-05-26T05:10:42.179Z,16.81
2019-05-26T05:13:04.950Z,16.81
2019-05-26T05:15:32.922Z,16.80
2019-05-26T05:18:00.934Z,16.80
2019-05-26T05:20:28.907Z,16.81
2019-05-26T05:22:56.979Z,16.82
2019-05-26T05:25:24.975Z,16.83
2019-05-26T05:27:52.998Z,16.81
2019-05-26T05:30:21.056Z,16.84
2019-05-26T05:32:49.215Z,16.84
2019-05-26T05:35:17.264Z,16.86
2019-05-26T05:37:45.322Z,16.86
2019-05-26T05:40:13.499Z,16.86
2019-05-26T05:42:41.547Z,16.89
2019-05-26T05:45:09.630Z,16.93
2019-05-26T05:47:37.727Z,16.95
2019-05-26T05:50:06.089Z,16.97
2019-05-26T05:52:34.106Z,16.99
2019-05-26T05:55:02.290Z,17.00
2019-05-26T05:57:30.280Z,17.02
2019-05-26T05:59:58.308Z,17.02
2019-05-26T06:02:26.342Z,17.06
2019-05-26T06:04:54.384Z,17.09
2019-05-26T06:07:22.426Z,17.09
2019-05-26T06:09:50.514Z,17.11
2019-05-26T06:12:18.608Z,17.12
2019-05-26T06:14:46.701Z,17.12
2019-05-26T06:17:14.684Z,17.12
2019-05-26T06:19:46.458Z,17.14
2019-05-26T06:22:14.430Z,17.17
2019-05-26T06:24:42.426Z,17.16
2019-05-26T06:27:10.414Z,17.18
2019-05-26T06:29:38.497Z,17.20
2019-05-26T06:32:06.712Z,17.22
2019-05-26T06:34:34.966Z,17.24
2019-05-26T06:37:03.028Z,17.28
2019-05-26T06:39:31.032Z,17.32
2019-05-26T06:41:59.027Z,17.35
2019-05-26T06:44:27.782Z,17.38
2019-05-26T06:46:56.155Z,17.43
2019-05-26T06:49:24.190Z,17.48
2019-05-26T06:51:52.324Z,17.50
2019-05-26T06:54:20.322Z,17.53
2019-05-26T06:56:48.344Z,17.56
2019-05-26T06:59:16.532Z,17.58
2019-05-26T07:01:44.634Z,17.60
2019-05-26T07:04:12.683Z,17.62
2019-05-26T07:06:40.730Z,17.63
2019-05-26T07:09:08.745Z,17.65
2019-05-26T07:11:54.007Z,17.68
2019-05-26T07:14:06.474Z,17.70
2019-05-26T07:16:38.547Z,17.71
2019-05-26T07:19:04.226Z,17.76
2019-05-26T07:21:32.255Z,17.83
2019-05-26T07:24:00.271Z,17.85
2019-05-26T07:26:28.339Z,17.89
2019-05-26T07:28:56.347Z,17.93
2019-05-26T07:31:24.334Z,17.95
2019-05-26T07:33:52.367Z,17.98
2019-05-26T07:36:20.421Z,18.01
2019-05-26T07:41:35.726Z,18.06
2019-05-26T07:46:37.357Z,18.12
2019-05-26T07:49:05.444Z,18.15
2019-05-26T07:51:33.487Z,18.16
2019-05-26T07:54:01.555Z,18.19
2019-05-26T07:56:29.639Z,18.19
2019-05-26T07:58:57.698Z,18.21
2019-05-26T08:01:44.982Z,18.25
2019-05-26T08:04:12.987Z,18.27
2019-05-26T08:06:40.978Z,18.28
2019-05-26T08:09:09.279Z,18.28
2019-05-26T08:11:37.282Z,18.29
2019-05-26T08:14:05.485Z,18.31
2019-05-26T08:16:33.507Z,18.32
2019-05-26T08:19:01.498Z,18.33
2019-05-26T08:21:29.590Z,18.35
2019-05-26T08:23:57.572Z,18.36
2019-05-26T08:26:25.567Z,18.37
2019-05-26T08:28:55.069Z,18.37
2019-05-26T08:31:23.362Z,18.38
2019-05-26T08:33:51.420Z,18.38
2019-05-26T08:36:19.426Z,18.39
2019-05-26T08:38:47.410Z,18.41
2019-05-26T08:41:15.503Z,18.43
2019-05-26T08:43:43.477Z,18.45
2019-05-26T08:46:11.534Z,18.47
2019-05-26T08:48:39.962Z,18.49
2019-05-26T08:51:08.106Z,18.49
2019-05-26T08:53:36.243Z,18.52
2019-05-26T08:56:04.270Z,18.53
2019-05-26T08:58:32.246Z,18.55
2019-05-26T09:01:00.249Z,18.58
2019-05-26T09:03:29.059Z,18.61
2019-05-26T09:05:57.059Z,18.62
2019-05-26T09:08:25.263Z,18.67
2019-05-26T09:10:53.297Z,18.69
2019-05-26T09:13:21.286Z,18.73
2019-05-26T09:15:49.338Z,18.77
2019-05-26T09:18:17.330Z,18.80
2019-05-26T09:20:45.336Z,18.83
2019-05-26T09:23:13.456Z,18.86
2019-05-26T09:25:41.567Z,18.88
2019-05-26T09:28:09.758Z,18.91
2019-05-26T09:30:37.845Z,18.94
2019-05-26T09:33:05.903Z,18.97
2019-05-26T09:35:34.014Z,19.01
2019-05-26T09:38:02.062Z,19.04
2019-05-26T09:40:30.138Z,19.07
2019-05-26T09:42:58.214Z,19.07
2019-05-26T09:45:26.293Z,19.09
2019-05-26T09:47:54.450Z,19.11
2019-05-26T09:50:22.450Z,19.14
2019-05-26T09:52:50.498Z,19.17
2019-05-26T09:55:18.483Z,19.21
2019-05-26T09:57:46.514Z,19.25
2019-05-26T10:00:16.260Z,19.29
2019-05-26T10:02:44.359Z,19.35
2019-05-26T10:05:12.366Z,19.39
2019-05-26T10:07:40.411Z,19.41
2019-05-26T10:10:08.417Z,19.41
2019-05-26T10:12:36.567Z,19.39
2019-05-26T10:15:06.398Z,19.37
2019-05-26T10:17:34.428Z,19.36
2019-05-26T10:20:02.434Z,19.34
2019-05-26T10:22:30.425Z,19.31
2019-05-26T10:24:58.399Z,19.31
2019-05-26T10:27:26.563Z,19.30
2019-05-26T10:29:54.542Z,19.29
2019-05-26T10:32:22.625Z,19.30
2019-05-26T10:34:50.674Z,19.30
2019-05-26T10:37:18.683Z,19.31
2019-05-26T10:39:46.668Z,19.32
2019-05-26T10:42:14.746Z,19.34
2019-05-26T10:44:42.719Z,19.35
2019-05-26T10:47:10.751Z,19.34
2019-05-26T10:49:38.999Z,19.35
2019-05-26T10:52:07.063Z,19.34
2019-05-26T10:54:35.032Z,19.33
2019-05-26T10:57:03.040Z,19.33
2019-05-26T10:59:31.353Z,19.33
2019-05-26T11:02:11.026Z,19.32
2019-05-26T11:04:29.129Z,19.33
2019-05-26T11:06:57.121Z,19.32
2019-05-26T11:09:25.267Z,19.34
2019-05-26T11:11:53.282Z,19.34
2019-05-26T11:14:21.261Z,19.34
2019-05-26T11:16:49.295Z,19.34
2019-05-26T11:19:17.354Z,19.34
2019-05-26T11:21:45.408Z,19.35
2019-05-26T11:24:13.420Z,19.36
2019-05-26T11:26:41.484Z,19.35
2019-05-26T11:29:09.459Z,19.36
2019-05-26T11:31:37.553Z,19.35
2019-05-26T11:34:05.557Z,19.36
2019-05-26T11:36:33.689Z,19.37
2019-05-26T11:39:01.658Z,19.37
2019-05-26T11:41:30.122Z,19.39
2019-05-26T11:43:58.141Z,19.38
2019-05-26T11:46:26.238Z,19.38
2019-05-26T11:48:54.210Z,19.39
2019-05-26T11:51:22.357Z,19.39
2019-05-26T11:53:50.414Z,19.39
2019-05-26T11:56:18.411Z,19.39
2019-05-26T11:58:46.422Z,19.41
2019-05-26T12:01:14.466Z,19.39
2019-05-26T12:03:42.475Z,19.39
2019-05-26T12:06:10.459Z,19.39
2019-05-26T12:08:38.536Z,19.38
2019-05-26T12:11:06.511Z,19.38
2019-05-26T12:13:36.664Z,19.39
2019-05-26T12:16:04.223Z,19.39
2019-05-26T12:18:32.229Z,19.39
2019-05-26T12:21:00.390Z,19.39
2019-05-26T12:23:28.554Z,19.39
2019-05-26T12:25:56.533Z,19.39
2019-05-26T12:28:24.603Z,19.41
2019-05-26T12:30:52.591Z,19.42
2019-05-26T12:33:20.589Z,19.43
2019-05-26T12:35:48.583Z,19.42
2019-05-26T12:38:16.667Z,19.45
2019-05-26T12:40:44.710Z,19.47
2019-05-26T12:43:12.792Z,19.49
2019-05-26T12:45:40.802Z,19.51
2019-05-26T12:48:08.900Z,19.53
2019-05-26T12:50:37.027Z,19.56
2019-05-26T12:53:05.637Z,19.58
2019-05-26T12:55:33.606Z,19.60
2019-05-26T12:58:01.813Z,19.62
2019-05-26T13:00:47.072Z,19.64
2019-05-26T13:02:59.752Z,19.66
2019-05-26T13:05:27.738Z,19.68
2019-05-26T13:07:55.814Z,19.70
2019-05-26T13:10:23.835Z,19.72
2019-05-26T13:12:51.930Z,19.73
2019-05-26T13:15:19.910Z,19.76
2019-05-26T13:17:47.927Z,19.79
2019-05-26T13:20:15.907Z,19.81
2019-05-26T13:22:44.048Z,19.83
2019-05-26T13:25:12.108Z,19.85
2019-05-26T13:27:40.141Z,19.86
2019-05-26T13:30:08.408Z,19.87
2019-05-26T13:32:36.398Z,19.90
2019-05-26T13:35:04.534Z,19.92
2019-05-26T13:37:32.594Z,19.95
2019-05-26T13:40:00.695Z,19.98
2019-05-26T13:42:28.778Z,19.99
2019-05-26T13:44:56.794Z,20.05
2019-05-26T13:47:26.408Z,20.08
2019-05-26T13:49:54.447Z,20.11
2019-05-26T13:52:22.419Z,20.14
2019-05-26T13:54:50.479Z,20.18
2019-05-26T13:57:18.451Z,20.18
2019-05-26T13:59:46.527Z,20.19
2019-05-26T14:02:14.495Z,20.20
2019-05-26T14:04:42.506Z,20.20
2019-05-26T14:07:10.546Z,20.21
2019-05-26T14:09:38.706Z,20.21
2019-05-26T14:12:06.665Z,20.22
2019-05-26T14:14:34.679Z,20.24
2019-05-26T14:17:02.742Z,20.27
2019-05-26T14:19:30.812Z,20.30
2019-05-26T14:21:58.873Z,20.32
2019-05-26T14:24:26.901Z,20.39
2019-05-26T14:26:54.883Z,20.39
2019-05-26T14:29:22.938Z,20.42
2019-05-26T14:31:52.877Z,20.42
2019-05-26T14:34:20.642Z,20.45
2019-05-26T14:36:48.691Z,20.45
2019-05-26T14:39:16.795Z,20.46
2019-05-26T14:41:44.785Z,20.48
2019-05-26T14:44:12.784Z,20.51
2019-05-26T14:46:40.818Z,20.52
2019-05-26T14:49:08.807Z,20.53
2019-05-26T14:51:36.770Z,20.57
2019-05-26T14:54:04.778Z,20.66
2019-05-26T14:56:32.845Z,20.70
2019-05-26T14:59:00.963Z,20.73
2019-05-26T15:01:29.216Z,20.76
2019-05-26T15:03:57.346Z,20.80
2019-05-26T15:06:25.319Z,20.82
2019-05-26T15:08:53.319Z,20.84
2019-05-26T15:11:21.381Z,20.89
2019-05-26T15:13:49.377Z,20.90
2019-05-26T15:16:17.418Z,20.91
2019-05-26T15:18:45.435Z,20.91
2019-05-26T15:21:13.433Z,20.92
2019-05-26T15:23:41.430Z,20.93
2019-05-26T15:26:09.406Z,20.93
2019-05-26T15:28:37.578Z,20.99
2019-05-26T15:31:05.621Z,20.97
2019-05-26T15:33:33.606Z,20.96
2019-05-26T15:36:01.639Z,20.95
2019-05-26T15:38:42.034Z,20.94
2019-05-26T15:40:59.652Z,20.94
2019-05-26T15:43:28.074Z,20.93
2019-05-26T15:45:56.078Z,20.95
2019-05-26T15:48:24.161Z,20.93
2019-05-26T15:50:52.163Z,20.91
2019-05-26T15:53:20.132Z,20.90
2019-05-26T15:55:48.210Z,20.89
2019-05-26T15:58:16.265Z,20.86
2019-05-26T16:00:44.346Z,20.83
2019-05-26T16:03:12.494Z,20.81
2019-05-26T16:05:40.527Z,20.79
2019-05-26T16:08:08.526Z,20.74
2019-05-26T16:10:36.531Z,20.74
2019-05-26T16:13:04.583Z,20.70
2019-05-26T16:15:32.728Z,20.66
2019-05-26T16:18:00.786Z,20.63
2019-05-26T16:20:28.876Z,20.61
2019-05-26T16:22:56.848Z,20.59
2019-05-26T16:25:24.839Z,20.56
2019-05-26T16:27:52.885Z,20.53
2019-05-26T16:30:20.958Z,20.49
2019-05-26T16:32:48.931Z,20.46
2019-05-26T16:35:17.010Z,20.43
2019-05-26T16:37:45.055Z,20.42
2019-05-26T16:40:13.146Z,20.40
2019-05-26T16:42:41.191Z,20.38
2019-05-26T16:45:09.274Z,20.37
2019-05-26T16:47:37.355Z,20.34
2019-05-26T16:50:05.539Z,20.34
2019-05-26T16:52:33.518Z,20.31
2019-05-26T16:55:01.580Z,20.30
2019-05-26T16:57:29.628Z,20.28
2019-05-26T16:59:57.625Z,20.28
2019-05-26T17:02:25.602Z,20.28
2019-05-26T17:04:53.844Z,20.25
2019-05-26T17:07:21.927Z,20.26
2019-05-26T17:09:49.966Z,20.25
2019-05-26T17:12:17.938Z,20.25
2019-05-26T17:14:45.965Z,20.25
2019-05-26T17:17:15.390Z,20.23
2019-05-26T17:19:43.607Z,20.22
2019-05-26T17:22:11.930Z,20.22
2019-05-26T17:24:39.975Z,20.21
2019-05-26T17:27:07.971Z,20.19
2019-05-26T17:29:35.947Z,20.19
2019-05-26T17:32:04.014Z,20.20
2019-05-26T17:34:31.992Z,20.21
2019-05-26T17:37:00.062Z,20.23
2019-05-26T17:39:28.051Z,20.24
2019-05-26T17:41:56.128Z,20.26
2019-05-26T17:44:24.249Z,20.28
2019-05-26T17:46:52.287Z,20.28
2019-05-26T17:49:20.268Z,20.28
2019-05-26T17:51:48.272Z,20.27
2019-05-26T17:54:16.242Z,20.27
2019-05-26T17:56:44.323Z,20.25
2019-05-26T17:59:12.386Z,20.24
2019-05-26T18:01:40.459Z,20.23
2019-05-26T18:04:08.511Z,20.22
2019-05-26T18:06:36.584Z,20.20
2019-05-26T18:09:05.486Z,20.20
2019-05-26T18:11:33.482Z,20.19
2019-05-26T18:14:01.539Z,20.17
2019-05-26T18:16:29.526Z,20.16
2019-05-26T18:18:57.572Z,20.16
2019-05-26T18:21:25.558Z,20.14
2019-05-26T18:23:53.546Z,20.13
2019-05-26T18:26:21.650Z,20.12
2019-05-26T18:28:49.726Z,20.10
2019-05-26T18:31:17.762Z,20.10
2019-05-26T18:33:45.866Z,20.09
2019-05-26T18:36:14.064Z,20.08
2019-05-26T18:38:42.342Z,20.06
2019-05-26T18:41:10.414Z,20.05
2019-05-26T18:43:38.551Z,20.03
2019-05-26T18:46:06.706Z,20.02
2019-05-26T18:48:34.711Z,20.01
2019-05-26T18:51:02.711Z,20.00
2019-05-26T18:53:30.691Z,19.99
2019-05-26T18:55:58.763Z,19.98
2019-05-26T18:58:26.814Z,19.98
2019-05-26T19:00:54.889Z,19.96
2019-05-26T19:03:22.941Z,19.96
2019-05-26T19:05:51.110Z,19.95
2019-05-26T19:08:19.098Z,19.93
2019-05-26T19:10:47.127Z,19.92
2019-05-26T19:13:15.258Z,19.92
2019-05-26T19:15:43.494Z,19.91
2019-05-26T19:18:19.784Z,19.90
2019-05-26T19:20:41.514Z,19.89
2019-05-26T19:23:09.494Z,19.89
2019-05-26T19:25:56.607Z,19.87
2019-05-26T19:28:24.678Z,19.87
2019-05-26T19:30:52.656Z,19.86
2019-05-26T19:33:20.655Z,19.85
2019-05-26T19:35:48.702Z,19.85
2019-05-26T19:38:16.787Z,19.84
2019-05-26T19:40:44.758Z,19.83
2019-05-26T19:43:12.784Z,19.82
2019-05-26T19:45:40.834Z,19.83
2019-05-26T19:48:09.020Z,19.81
2019-05-26T19:50:37.125Z,19.80
2019-05-26T19:53:05.249Z,19.80
2019-05-26T19:55:33.231Z,19.79
2019-05-26T19:58:01.304Z,19.79
2019-05-26T20:00:29.374Z,19.77
2019-05-26T20:02:58.495Z,19.78
2019-05-26T20:05:26.723Z,19.76
2019-05-26T20:07:54.792Z,19.77
2019-05-26T20:10:23.139Z,19.75
2019-05-26T20:12:51.292Z,19.75
2019-05-26T20:15:19.302Z,19.74
2019-05-26T20:17:47.409Z,19.74
2019-05-26T20:20:15.819Z,19.72
2019-05-26T20:22:43.862Z,19.72
2019-05-26T20:25:11.911Z,19.71
2019-05-26T20:27:59.036Z,19.71
2019-05-26T20:30:27.154Z,19.70
2019-05-26T20:32:55.365Z,19.69
2019-05-26T20:35:23.294Z,19.68
2019-05-26T20:37:51.444Z,19.68
2019-05-26T20:40:19.503Z,19.69
2019-05-26T20:42:47.591Z,19.67
2019-05-26T20:45:15.758Z,19.67
2019-05-26T20:47:43.839Z,19.66
2019-05-26T20:50:27.708Z,19.65
2019-05-26T20:52:41.568Z,19.65
2019-05-26T20:55:09.590Z,19.64
2019-05-26T20:57:37.677Z,19.65
2019-05-26T21:00:06.060Z,19.64
2019-05-26T21:02:34.463Z,19.63
2019-05-26T21:05:02.607Z,19.62
2019-05-26T21:07:30.562Z,19.61
2019-05-26T21:09:58.734Z,19.61
2019-05-26T21:12:27.015Z,19.61
2019-05-26T21:14:55.066Z,19.60
2019-05-26T21:17:23.207Z,19.61
2019-05-26T21:19:51.179Z,19.59
2019-05-26T21:22:19.174Z,19.60
2019-05-26T21:24:47.555Z,19.59
2019-05-26T21:27:15.849Z,19.58
2019-05-26T21:29:43.874Z,19.58
2019-05-26T21:32:11.918Z,19.57
2019-05-26T21:34:40.877Z,19.56
2019-05-26T21:37:08.871Z,19.57
2019-05-26T21:39:36.955Z,19.57
2019-05-26T21:42:04.954Z,19.55
2019-05-26T21:44:32.958Z,19.55
2019-05-26T21:47:01.030Z,19.54
2019-05-26T21:49:29.114Z,19.54
2019-05-26T21:51:57.170Z,19.55
2019-05-26T21:54:25.216Z,19.53
2019-05-26T21:56:53.298Z,19.53
2019-05-26T21:59:21.507Z,19.53
2019-05-26T22:01:49.588Z,19.52
2019-05-26T22:04:17.733Z,19.52
2019-05-26T22:06:45.807Z,19.51
2019-05-26T22:09:13.887Z,19.51
2019-05-26T22:11:41.950Z,19.50
2019-05-26T22:14:09.994Z,19.49
2019-05-26T22:16:37.970Z,19.50
2019-05-26T22:19:05.986Z,19.49
2019-05-26T22:21:34.040Z,19.49
2019-05-26T22:24:02.173Z,19.48
2019-05-26T22:26:30.235Z,19.46
2019-05-26T22:28:58.305Z,19.47
2019-05-26T22:31:26.282Z,19.47
2019-05-26T22:33:54.298Z,19.46
2019-05-26T22:36:22.279Z,19.46
2019-05-26T22:38:50.430Z,19.44
2019-05-26T22:41:18.471Z,19.44
2019-05-26T22:43:46.467Z,19.44
2019-05-26T22:46:14.530Z,19.43
2019-05-26T22:48:42.735Z,19.44
2019-05-26T22:51:10.783Z,19.43
2019-05-26T22:53:38.867Z,19.42
2019-05-26T22:56:06.846Z,19.42
2019-05-26T22:58:34.922Z,19.42
2019-05-26T23:03:50.012Z,19.41
2019-05-26T23:06:18.061Z,19.39
2019-05-26T23:08:46.107Z,19.41
2019-05-26T23:11:14.158Z,19.38
2019-05-26T23:13:42.143Z,19.39
2019-05-26T23:16:10.106Z,19.38
2019-05-26T23:18:38.246Z,19.38
2019-05-26T23:21:06.238Z,19.37
2019-05-26T23:23:34.229Z,19.36
2019-05-26T23:26:02.194Z,19.36
2019-05-26T23:28:30.250Z,19.36
2019-05-26T23:30:58.382Z,19.35
2019-05-26T23:33:26.438Z,19.37
2019-05-26T23:35:54.608Z,19.34
2019-05-26T23:38:22.587Z,19.34
2019-05-26T23:40:50.641Z,19.34
2019-05-26T23:43:18.694Z,19.33
2019-05-26T23:45:46.693Z,19.33
2019-05-26T23:48:14.834Z,19.33
2019-05-26T23:50:43.174Z,19.33
2019-05-26T23:53:11.268Z,19.32
2019-05-26T23:55:39.385Z,19.32
2019-05-26T23:58:07.358Z,19.32
